Time;durP1;ratioP1;P1;durP2;ratioP2;P2;SDS_P1;SDS_P2;PMS_P1;PMS_P2;Temp;Humidity;BMP_temperature;BMP_pressure;BME280_temperature;BME280_humidity;BME280_pressure;Samples;Min_cycle;Max_cycle;Signal;HPM_P1;HPM_P2
2022/03/11 08:53:25;;;;;;;;;;;512.00;588.80;;;;;;6245889;22;19915;-94
2022/03/11 08:55:51;;;;;;;;;;;538.10;588.80;;;;;;6249249;23;19903;-93
2022/03/11 08:58:19;;;;;;;;;;;563.20;563.20;;;;;;6222207;23;20305;-92
2022/03/11 09:00:45;;;;;;;;;;;564.00;563.20;;;;;;6222206;23;19950;-93
2022/03/11 09:03:10;;;;;;;;;;;589.10;512.00;;;;;;6222479;23;19907;-94
2022/03/11 09:05:37;;;;;;;;;;;614.50;486.40;;;;;;6222538;23;20423;-94
2022/03/11 09:08:03;;;;;;;;;;;614.60;486.40;;;;;;6222291;23;19906;-92
2022/03/11 09:10:29;;;;;;;;;;;640.00;460.80;;;;;;6222208;23;19974;-94
2022/03/11 09:12:55;;;;;;;;;;;640.50;460.80;;;;;;6222147;23;19907;-92
2022/03/11 09:15:20;;;;;;;;;;;640.80;435.20;;;;;;6222475;23;19939;-91
2022/03/11 09:17:48;;;;;;;;;;;666.40;435.20;;;;;;6249307;23;19899;-92
2022/03/11 09:20:14;;;;;;;;;;;691.60;435.20;;;;;;6248699;23;20309;-91
2022/03/11 09:22:41;;;;;;;;;;;691.80;409.60;;;;;;6221941;23;19918;-92
2022/03/11 09:25:10;;;;;;;;;;;692.00;409.60;;;;;;6222802;23;19922;-91
2022/03/11 09:27:36;;;;;;;;;;;717.60;384.00;;;;;;6222046;23;19906;-91
2022/03/11 09:30:03;;;;;;;;;;;742.40;409.60;;;;;;6222001;23;20216;-89
2022/03/11 09:32:28;;;;;;;;;;;742.50;384.00;;;;;;6248438;23;19903;-90
2022/03/11 09:34:54;;;;;;;;;;;742.80;384.00;;;;;;6222045;23;19907;-91
2022/03/11 09:37:20;;;;;;;;;;;768.20;384.00;;;;;;6221897;23;19926;-88
2022/03/11 09:39:46;;;;;;;;;;;768.30;358.40;;;;;;6221726;23;19906;-90
2022/03/11 09:42:12;;;;;;;;;;;768.50;358.40;;;;;;6220651;23;20222;-90
2022/03/11 09:44:41;;;;;;;;;;;793.80;358.40;;;;;;6248390;23;20225;-90
2022/03/11 09:47:06;;;;;;;;;;;794.30;358.40;;;;;;6221653;23;19900;-90
2022/03/11 09:49:35;;;;;;;;;;;794.10;332.80;;;;;;6247306;23;19943;-89
2022/03/11 09:52:02;;;;;;;;;;;794.20;358.40;;;;;;6221411;23;19956;-90
2022/03/11 09:54:27;;;;;;;;;;;794.50;358.40;;;;;;6248150;23;19918;-89
2022/03/11 09:56:53;;;;;;;;;;;819.20;332.80;;;;;;6221617;23;19900;-89
2022/03/11 09:59:19;;;;;;;;;;;819.80;332.80;;;;;;6248351;23;20232;-91
2022/03/11 10:01:44;;;;;;;;;;;845.10;332.80;;;;;;6221473;23;19906;-89
2022/03/11 10:04:11;;;;;;;;;;;845.30;332.80;;;;;;6221495;23;19900;-89
2022/03/11 10:06:41;;;;;;;;;;;845.50;307.20;;;;;;6221519;23;19945;-90
2022/03/11 10:09:19;;;;;;;;;;;870.70;307.20;;;;;;6221261;23;20271;-90
2022/03/11 10:11:46;;;;;;;;;;;871.20;307.20;;;;;;6246297;23;19907;-89
2022/03/11 10:14:12;;;;;;;;;;;871.20;307.20;;;;;;6221549;23;19900;-89
2022/03/11 10:16:38;;;;;;;;;;;896.10;281.60;;;;;;6248106;23;19946;-89
2022/03/11 10:19:04;;;;;;;;;;;921.70;307.20;;;;;;6221313;23;19899;-89
2022/03/11 10:21:34;;;;;;;;;;;921.80;281.60;;;;;;6221146;23;19903;-88
2022/03/11 10:24:01;;;;;;;;;;;921.90;281.60;;;;;;6247912;23;20440;-88
2022/03/11 10:26:39;;;;;;;;;;;922.20;281.60;;;;;;6247849;23;19907;-89
2022/03/11 10:29:06;;;;;;;;;;;921.80;281.60;;;;;;6220917;23;19899;-89
2022/03/11 10:31:33;;;;;;;;;;;896.90;256.00;;;;;;6221102;23;19906;-88
2022/03/11 10:34:17;;;;;;;;;;;870.60;281.60;;;;;;6221293;23;19906;-89
2022/03/11 10:36:47;;;;;;;;;;;743.00;332.80;;;;;;6247144;23;19978;-84
2022/03/11 10:39:27;;;;;;;;;;;615.20;384.00;;;;;;6220064;23;19906;-84
2022/03/11 10:41:53;;;;;;;;;;;538.10;460.80;;;;;;6220359;23;19900;-88
2022/03/11 10:44:19;;;;;;;;;;;486.50;486.40;;;;;;6220865;23;19905;-88
2022/03/11 10:46:45;;;;;;;;;;;460.80;563.20;;;;;;6220374;23;19900;-91
2022/03/11 10:49:11;;;;;;;;;;;435.50;537.60;;;;;;6220621;23;19906;-92
2022/03/11 10:51:38;;;;;;;;;;;410.40;537.60;;;;;;6220927;23;19899;-93
2022/03/11 10:54:04;;;;;;;;;;;384.60;563.20;;;;;;6220284;23;20356;-95
2022/03/11 10:56:39;;;;;;;;;;;384.20;588.80;;;;;;6221633;23;19910;-95
2022/03/11 10:59:23;;;;;;;;;;;358.80;614.40;;;;;;6248494;23;20280;-91
2022/03/11 11:01:52;;;;;;;;;;;358.60;614.40;;;;;;6221194;23;19922;-93
2022/03/11 11:04:27;;;;;;;;;;;;;;;;;;6247304;23;19903;-91
2022/03/11 11:06:53;;;;;;;;;;;;;;;;;;6220728;23;20270;-93
2022/03/11 12:46:59;;;;;;;;;;;717.40;332.80;;;;;;6231999;22;19920;-93
2022/03/11 12:49:25;;;;;;;;;;;845.20;307.20;;;;;;6229596;23;19904;-95
2022/03/11 12:51:51;;;;;;;;;;;870.40;281.60;;;;;;6226712;23;19947;-93
2022/03/11 12:54:18;;;;;;;;;;;896.00;256.00;;;;;;6250823;23;19902;-93
2022/03/11 12:56:44;;;;;;;;;;;871.20;256.00;;;;;;6222762;23;19906;-95
2022/03/11 12:59:10;;;;;;;;;;;794.40;281.60;;;;;;6222887;23;20380;-92
2022/03/11 13:01:36;;;;;;;;;;;742.60;307.20;;;;;;6248591;23;19962;-95
2022/03/11 13:04:04;;;;;;;;;;;793.70;307.20;;;;;;6249385;23;20305;-93
2022/03/11 13:06:30;;;;;;;;;;;768.20;307.20;;;;;;6221425;23;20338;-94
2022/03/11 13:09:02;;;;;;;;;;;793.60;307.20;;;;;;6221240;23;20328;-94
2022/03/11 13:11:28;;;;;;;;;;;819.30;281.60;;;;;;6248783;23;20045;-91
2022/03/11 13:14:01;;;;;;;;;;;845.30;281.60;;;;;;6222047;23;20210;-93
2022/03/11 13:16:26;;;;;;;;;;;794.10;281.60;;;;;;6248165;23;19930;-93
2022/03/11 13:18:53;;;;;;;;;;;844.90;281.60;;;;;;6248199;23;19899;-93
2022/03/11 13:21:20;;;;;;;;;;;819.60;281.60;;;;;;6221590;23;19922;-92
2022/03/11 13:23:47;;;;;;;;;;;819.90;256.00;;;;;;6221364;23;19908;-92
2022/03/11 13:26:20;;;;;;;;;;;947.50;281.60;;;;;;6248247;23;19899;-89
2022/03/11 13:28:49;;;;;;;;;;;973.50;307.20;;;;;;6248270;23;19974;-91
2022/03/11 13:31:37;;;;;;;;;;;999.20;332.80;;;;;;6248373;23;19899;-93
2022/03/11 13:34:03;;;;;;;;;;;1024.50;332.80;;;;;;6221317;23;20210;-91
2022/03/11 13:36:31;;;;;;;;;;;1050.30;358.40;;;;;;6246644;23;19906;-89
2022/03/11 13:38:58;;;;;;;;;;;1075.80;358.40;;;;;;6247023;23;19907;-91
2022/03/11 13:41:37;;;;;;;;;;;1075.80;358.40;;;;;;6221379;23;20239;-89
2022/03/11 13:44:13;;;;;;;;;;;1101.00;384.00;;;;;;6221098;23;19994;-88
2022/03/11 13:46:40;;;;;;;;;;;1126.70;409.60;;;;;;6221094;23;20301;-90
2022/03/11 13:49:06;;;;;;;;;;;;;;;;;;6247844;23;19911;-89
2022/03/11 13:51:49;;;;;;;;;;;1152.80;409.60;;;;;;6221572;23;19900;-89
2022/03/11 13:54:31;;;;;;;;;;;1152.10;409.60;;;;;;6221267;23;19904;-90
2022/03/11 13:56:59;;;;;;;;;;;1152.10;409.60;;;;;;6248081;23;19900;-92
2022/03/11 13:59:32;;;;;;;;;;;1152.50;409.60;;;;;;6248010;23;19934;-91
2022/03/11 14:02:11;;;;;;;;;;;1152.80;409.60;;;;;;6220822;23;19922;-92
2022/03/11 14:04:37;;;;;;;;;;;1152.70;409.60;;;;;;6248485;23;19900;-90
2022/03/11 14:07:06;;;;;;;;;;;1152.60;409.60;;;;;;6221563;23;19978;-91
2022/03/11 14:09:32;;;;;;;;;;;1101.50;384.00;;;;;;6247289;23;19900;-91
2022/03/11 14:11:58;;;;;;;;;;;1126.70;409.60;;;;;;6248137;23;19906;-91
2022/03/11 14:14:34;;;;;;;;;;;1126.90;409.60;;;;;;6221064;23;20310;-90
2022/03/11 14:17:01;;;;;;;;;;;1126.90;409.60;;;;;;6212648;23;19900;-91
2022/03/11 14:19:27;;;;;;;;;;;1101.10;384.00;;;;;;6248258;23;19899;-91
2022/03/11 14:21:53;;;;;;;;;;;1075.40;358.40;;;;;;6247797;23;19979;-89
2022/03/11 14:24:19;;;;;;;;;;;947.90;281.60;;;;;;6247510;23;20305;-91
2022/03/11 14:26:45;;;;;;;;;;;743.20;256.00;;;;;;6247390;23;20271;-92
2022/03/11 14:29:11;;;;;;;;;;;640.10;281.60;;;;;;6221398;23;19900;-89
2022/03/11 14:31:36;;;;;;;;;;;563.20;384.00;;;;;;6221139;23;20305;-93
2022/03/11 14:34:03;;;;;;;;;;;487.10;384.00;;;;;;6246762;23;19900;-91
2022/03/11 14:36:28;;;;;;;;;;;461.00;435.20;;;;;;6247614;23;19899;-92
2022/03/11 14:38:54;;;;;;;;;;;410.00;460.80;;;;;;6220899;23;19939;-92
2022/03/11 14:41:20;;;;;;;;;;;384.50;486.40;;;;;;6247982;23;20288;-93
2022/03/11 14:43:46;;;;;;;;;;;;;;;;;;6248114;23;19943;-92
2022/03/11 14:46:11;;;;;;;;;;;333.60;588.80;;;;;;6248088;23;19954;-94
2022/03/11 14:48:38;;;;;;;;;;;333.50;588.80;;;;;;6222225;23;19916;-94
2022/03/11 17:34:47;;;;;;;;;;;;;;;;;;6222042;22;20238;-91
2022/03/11 17:37:13;;;;;;;;;;;128.10;921.60;;;;;;6191703;23;19912;-91
2022/03/11 17:39:38;;;;;;;;;;;103.20;896.00;;;;;;6192450;23;19903;-91
2022/03/11 17:42:05;;;;;;;;;;;103.10;921.60;;;;;;6192342;23;20310;-90
2022/03/11 17:44:31;;;;;;;;;;;103.00;921.60;;;;;;6192213;23;19954;-90
2022/03/11 17:46:57;;;;;;;;;;;103.00;972.80;;;;;;6192167;23;20296;-90
2022/03/11 17:49:24;;;;;;;;;;;102.90;947.20;;;;;;6192807;23;20340;-91
2022/03/11 17:51:51;;;;;;;;;;;102.90;972.80;;;;;;6219104;23;19904;-90
2022/03/11 17:54:17;;;;;;;;;;;102.80;972.80;;;;;;6191475;23;19908;-89
2022/03/11 17:56:43;;;;;;;;;;;102.70;998.40;;;;;;6218063;23;19946;-91
2022/03/11 17:59:08;;;;;;;;;;;102.70;972.80;;;;;;6217982;23;20264;-89
2022/03/11 18:01:34;;;;;;;;;;;102.50;998.40;;;;;;6191601;23;19900;-89
2022/03/11 18:04:00;;;;;;;;;;;102.40;972.80;;;;;;6191580;23;20229;-89
2022/03/11 18:06:26;;;;;;;;;;;77.70;972.80;;;;;;6191395;23;19919;-90
2022/03/11 18:08:53;;;;;;;;;;;77.70;998.40;;;;;;6191490;23;19899;-91
2022/03/11 18:11:19;;;;;;;;;;;77.60;972.80;;;;;;6192008;23;20302;-89
2022/03/11 18:13:45;;;;;;;;;;;77.60;972.80;;;;;;6191458;23;19908;-91
2022/03/11 18:16:11;;;;;;;;;;;77.60;1024.00;;;;;;6191375;23;19915;-91
2022/03/11 18:18:37;;;;;;;;;;;77.60;998.40;;;;;;6191767;23;19900;-90
2022/03/11 18:21:03;;;;;;;;;;;77.60;1024.00;;;;;;6218293;23;19946;-89
2022/03/11 18:23:28;;;;;;;;;;;77.60;1024.00;;;;;;6191538;23;19900;-89
2022/03/11 18:25:54;;;;;;;;;;;77.60;1024.00;;;;;;6217220;23;19922;-91
2022/03/11 18:28:21;;;;;;;;;;;77.50;1024.00;;;;;;6191280;23;19900;-89
2022/03/11 18:30:47;;;;;;;;;;;77.50;1024.00;;;;;;6218253;23;19911;-89
2022/03/11 18:33:12;;;;;;;;;;;77.40;1024.00;;;;;;6191645;23;19908;-91
2022/03/11 18:35:38;;;;;;;;;;;77.30;998.40;;;;;;6206251;23;19955;-91
2022/03/11 18:38:04;;;;;;;;;;;77.30;1024.00;;;;;;6221370;23;20332;-91
2022/03/11 18:40:31;;;;;;;;;;;77.20;998.40;;;;;;6221304;23;20263;-89
2022/03/11 18:42:57;;;;;;;;;;;77.20;998.40;;;;;;6221406;23;19903;-90
2022/03/11 18:45:23;;;;;;;;;;;77.20;998.40;;;;;;6221340;23;19899;-92
2022/03/11 18:47:49;;;;;;;;;;;77.10;998.40;;;;;;6221309;23;20319;-90
2022/03/11 18:50:14;;;;;;;;;;;77.10;1024.00;;;;;;6221043;23;19900;-89
2022/03/11 18:52:40;;;;;;;;;;;77.00;1049.60;;;;;;6221219;23;19908;-89
2022/03/11 18:55:06;;;;;;;;;;;76.90;1049.60;;;;;;6221169;23;19978;-89
2022/03/11 18:57:32;;;;;;;;;;;77.00;1049.60;;;;;;6221361;23;19978;-89
2022/03/11 18:59:58;;;;;;;;;;;76.80;1075.20;;;;;;6221252;23;19931;-90
2022/03/11 19:02:24;;;;;;;;;;;76.80;1049.60;;;;;;6221182;23;19959;-90
2022/03/11 19:04:50;;;;;;;;;;;52.10;1075.20;;;;;;6221101;23;19907;-91
2022/03/11 19:07:16;;;;;;;;;;;52.10;1075.20;;;;;;6221148;23;20240;-90
2022/03/11 19:09:42;;;;;;;;;;;51.90;1049.60;;;;;;6221341;23;19904;-89
2022/03/11 19:12:08;;;;;;;;;;;51.80;1075.20;;;;;;6221306;23;19907;-89
2022/03/11 19:14:34;;;;;;;;;;;51.70;1075.20;;;;;;6221468;23;19899;-90
2022/03/11 19:17:04;;;;;;;;;;;51.60;1075.20;;;;;;6221897;23;19899;-83
2022/03/11 19:19:31;;;;;;;;;;;51.70;1075.20;;;;;;6221072;23;19904;-86
2022/03/11 19:21:57;;;;;;;;;;;51.50;1075.20;;;;;;6220863;23;20289;-87
2022/03/11 19:24:23;;;;;;;;;;;51.50;1075.20;;;;;;6220902;23;19900;-94
2022/03/11 19:26:49;;;;;;;;;;;51.40;1075.20;;;;;;6220803;23;20002;-87
2022/03/11 19:29:15;;;;;;;;;;;26.30;1024.00;;;;;;6220638;23;19911;-85
2022/03/11 19:31:44;;;;;;;;;;;51.30;1075.20;;;;;;6220454;23;19899;-85
2022/03/11 19:34:15;;;;;;;;;;;51.30;1075.20;;;;;;6247184;23;20305;-84
2022/03/11 19:36:41;;;;;;;;;;;51.30;1075.20;;;;;;6192414;23;20317;-86
2022/03/11 19:39:07;;;;;;;;;;;51.20;1100.80;;;;;;6190596;23;19904;-86
2022/03/11 19:41:36;;;;;;;;;;;51.30;1100.80;;;;;;6190764;23;19899;-86
2022/03/11 19:44:02;;;;;;;;;;;51.20;1100.80;;;;;;6184642;23;19956;-89
2022/03/11 19:46:28;;;;;;;;;;;51.20;1152.00;;;;;;6180369;23;19935;-88
2022/03/11 19:48:54;;;;;;;;;;;51.20;1126.40;;;;;;6189632;23;19910;-91
2022/03/11 19:51:19;;;;;;;;;;;51.20;1100.80;;;;;;6213771;23;19911;-89
2022/03/11 19:53:45;;;;;;;;;;;26.50;1075.20;;;;;;6190020;23;19915;-90
2022/03/11 19:56:11;;;;;;;;;;;26.40;1075.20;;;;;;6190876;23;19900;-91
2022/03/11 19:58:38;;;;;;;;;;;26.40;1100.80;;;;;;6190871;23;19900;-89
2022/03/11 20:01:03;;;;;;;;;;;26.30;1075.20;;;;;;6191697;23;20324;-88
2022/03/11 20:03:29;;;;;;;;;;;26.30;1100.80;;;;;;6192591;23;19900;-89
2022/03/11 20:05:55;;;;;;;;;;;26.30;1075.20;;;;;;6192158;23;19900;-88
2022/03/11 20:08:21;;;;;;;;;;;26.20;1100.80;;;;;;6192178;23;19907;-91
2022/03/11 20:10:48;;;;;;;;;;;26.20;1100.80;;;;;;6192526;23;19904;-89
2022/03/11 20:13:16;;;;;;;;;;;26.10;1075.20;;;;;;6218782;23;19908;-89
2022/03/11 20:15:42;;;;;;;;;;;26.10;1100.80;;;;;;6192495;23;20283;-92
2022/03/11 20:18:11;;;;;;;;;;;26.10;1100.80;;;;;;6192042;23;19947;-89
2022/03/11 20:20:43;;;;;;;;;;;26.00;1100.80;;;;;;6218964;23;19904;-93
2022/03/11 20:23:09;;;;;;;;;;;26.00;1126.40;;;;;;6218642;23;19946;-94
2022/03/11 20:25:35;;;;;;;;;;;25.80;1331.20;;;;;;6191714;23;19900;-93
2022/03/11 20:28:01;;;;;;;;;;;25.80;1126.40;;;;;;6218814;23;19900;-91
2022/03/11 20:30:27;;;;;;;;;;;25.80;1152.00;;;;;;6192041;23;19900;-87
2022/03/11 20:32:54;;;;;;;;;;;25.60;1152.00;;;;;;6191016;23;19950;-93
2022/03/11 20:35:19;;;;;;;;;;;25.80;1152.00;;;;;;6203384;23;19912;-87
2022/03/11 20:37:45;;;;;;;;;;;25.70;1126.40;;;;;;6222190;23;20332;-90
2022/03/11 20:40:12;;;;;;;;;;;25.60;1126.40;;;;;;6221982;23;19953;-92
2022/03/11 20:42:38;;;;;;;;;;;25.60;1152.00;;;;;;6222533;23;19950;-88
2022/03/11 20:45:06;;;;;;;;;;;25.60;1152.00;;;;;;6221546;23;19900;-88
2022/03/11 20:47:31;;;;;;;;;;;25.60;1152.00;;;;;;6221908;23;19900;-93
2022/03/11 20:49:57;;;;;;;;;;;0.90;1152.00;;;;;;6221982;23;19907;-89
2022/03/11 20:52:25;;;;;;;;;;;25.60;1152.00;;;;;;6221654;23;19970;-92
2022/03/11 20:54:54;;;;;;;;;;;0.80;1152.00;;;;;;6222046;23;19899;-88
2022/03/11 20:57:20;;;;;;;;;;;0.80;1152.00;;;;;;6221362;23;19899;-88
2022/03/11 20:59:45;;;;;;;;;;;0.80;1177.60;;;;;;6221885;23;19986;-88
2022/03/11 21:02:12;;;;;;;;;;;0.80;1177.60;;;;;;6221766;23;19899;-89
2022/03/11 21:04:38;;;;;;;;;;;0.70;1152.00;;;;;;6221820;23;19906;-92
2022/03/11 21:07:04;;;;;;;;;;;0.60;1177.60;;;;;;6222308;23;19974;-93
2022/03/11 21:09:30;;;;;;;;;;;0.60;1177.60;;;;;;6222201;23;19900;-95
2022/03/11 21:11:57;;;;;;;;;;;0.50;1177.60;;;;;;6222057;23;19911;-93
2022/03/11 21:14:23;;;;;;;;;;;0.50;1203.20;;;;;;6221934;23;20312;-93
2022/03/11 21:16:49;;;;;;;;;;;0.20;1203.20;;;;;;6222072;23;19900;-92
2022/03/11 21:19:14;;;;;;;;;;;0.50;1203.20;;;;;;6222094;23;19982;-93
2022/03/11 21:21:41;;;;;;;;;;;0.50;1228.80;;;;;;6222266;23;20361;-92
2022/03/11 21:24:07;;;;;;;;;;;0.50;1203.20;;;;;;6222180;23;19907;-94
2022/03/11 21:26:32;;;;;;;;;;;0.50;1228.80;;;;;;6221958;23;19907;-93
2022/03/11 21:28:58;;;;;;;;;;;0.40;1203.20;;;;;;6222091;23;19899;-92
2022/03/11 21:31:24;;;;;;;;;;;0.40;1203.20;;;;;;6222001;23;19968;-93
2022/03/11 21:33:50;;;;;;;;;;;0.40;1228.80;;;;;;6225483;23;19911;-93
2022/03/11 21:36:16;;;;;;;;;;;0.40;1203.20;;;;;;6248110;22;19907;-93
2022/03/11 21:38:42;;;;;;;;;;;0.30;1177.60;;;;;;6269167;22;20321;-88
2022/03/11 21:41:12;;;;;;;;;;;0.30;1228.80;;;;;;6223516;23;19969;-87
2022/03/11 21:43:38;;;;;;;;;;;0.40;1228.80;;;;;;6222473;23;20269;-87
2022/03/11 21:46:04;;;;;;;;;;;0.30;1203.20;;;;;;6221176;23;19975;-91
2022/03/11 21:48:30;;;;;;;;;;;0.50;1228.80;;;;;;6247395;23;19977;-90
2022/03/11 21:50:55;;;;;;;;;;;0.40;1459.20;;;;;;6247157;23;19903;-90
2022/03/11 21:53:21;;;;;;;;;;;;;;;;;;6247426;23;19907;-92
2022/03/11 21:55:48;;;;;;;;;;;;;;;;;;6221207;23;19927;-91
2022/03/11 21:58:14;;;;;;;;;;;;;;;;;;6220387;23;19903;-89
2022/03/11 22:00:40;;;;;;;;;;;;;;;;;;6220890;23;19945;-92
2022/03/11 22:03:06;;;;;;;;;;;;;;;;;;6222074;23;19899;-89
2022/03/11 22:05:33;;;;;;;;;;;;;;;;;;6221761;23;19899;-91
2022/03/11 22:07:59;;;;;;;;;;;;;;;;;;6221403;23;20209;-92
2022/03/11 22:10:25;;;;;;;;;;;;;;;;;;6222041;23;19906;-90
2022/03/11 22:12:51;;;;;;;;;;;;;;;;;;6221433;23;19914;-89
2022/03/11 22:15:17;;;;;;;;;;;;;;;;;;6221788;23;19907;-91
2022/03/11 22:17:44;;;;;;;;;;;13.00;1254.40;;;;;;6221321;23;19899;-88
2022/03/11 22:20:11;;;;;;;;;;;13.10;1561.60;;;;;;6221518;23;20400;-89
2022/03/11 22:22:36;;;;;;;;;;;13.30;1280.00;;;;;;6221240;23;19903;-90
2022/03/11 22:25:02;;;;;;;;;;;13.30;1280.00;;;;;;6221391;23;19926;-89
2022/03/11 22:27:28;;;;;;;;;;;13.50;1280.00;;;;;;6248070;23;19899;-88
2022/03/11 22:29:55;;;;;;;;;;;13.40;1280.00;;;;;;6221281;23;19900;-89
2022/03/11 22:32:24;;;;;;;;;;;13.50;1280.00;;;;;;6221434;23;20375;-90
2022/03/11 22:34:53;;;;;;;;;;;13.50;1280.00;;;;;;6221163;23;19900;-89
2022/03/11 22:37:19;;;;;;;;;;;13.50;1280.00;;;;;;6221385;23;19900;-89
2022/03/11 22:39:46;;;;;;;;;;;13.50;1305.60;;;;;;6221358;23;19900;-89
2022/03/11 22:42:12;;;;;;;;;;;13.50;1305.60;;;;;;6221262;23;19905;-89
2022/03/11 22:44:38;;;;;;;;;;;13.50;1305.60;;;;;;6248020;23;19907;-90
2022/03/11 22:47:08;;;;;;;;;;;13.50;1305.60;;;;;;6220949;23;19900;-89
2022/03/11 22:49:38;;;;;;;;;;;13.50;1305.60;;;;;;6220411;23;19899;-88
2022/03/11 22:52:05;;;;;;;;;;;13.60;1305.60;;;;;;6221305;23;20221;-88
2022/03/11 22:54:30;;;;;;;;;;;13.60;1305.60;;;;;;6247827;23;20304;-90
2022/03/11 22:57:02;;;;;;;;;;;13.60;1331.20;;;;;;6221148;23;19903;-90
2022/03/11 22:59:30;;;;;;;;;;;13.60;1331.20;;;;;;6248143;23;19899;-90
2022/03/11 23:04:43;;;;;;;;;;;13.70;1305.60;;;;;;6186316;23;19948;-90
2022/03/11 23:09:52;;;;;;;;;;;38.40;1356.80;;;;;;6247986;23;19908;-89
2022/03/11 23:12:21;;;;;;;;;;;38.50;1356.80;;;;;;6221185;23;19912;-88
2022/03/11 23:14:46;;;;;;;;;;;38.50;1356.80;;;;;;6248050;23;19903;-88
2022/03/11 23:17:12;;;;;;;;;;;38.60;1356.80;;;;;;6221148;23;19991;-90
2022/03/11 23:19:38;;;;;;;;;;;38.60;1331.20;;;;;;6221088;23;19978;-90
2022/03/11 23:22:04;;;;;;;;;;;38.70;1331.20;;;;;;6221162;23;19907;-88
2022/03/11 23:24:30;;;;;;;;;;;38.70;1356.80;;;;;;6221269;23;19899;-90
2022/03/11 23:26:56;;;;;;;;;;;38.70;1356.80;;;;;;6247913;23;19970;-89
2022/03/11 23:29:22;;;;;;;;;;;38.70;1356.80;;;;;;6221356;23;20313;-88
2022/03/11 23:31:48;;;;;;;;;;;38.80;1356.80;;;;;;6220739;23;19906;-90
2022/03/11 23:34:18;;;;;;;;;;;38.70;1382.40;;;;;;6221259;23;19911;-88
2022/03/11 23:36:45;;;;;;;;;;;38.80;1382.40;;;;;;6197535;23;19911;-89
2022/03/11 23:39:11;;;;;;;;;;;38.80;1356.80;;;;;;6192861;23;20270;-90
2022/03/11 23:41:37;;;;;;;;;;;38.90;1382.40;;;;;;6192614;23;19899;-90
2022/03/11 23:44:04;;;;;;;;;;;38.90;1331.20;;;;;;6192453;23;19900;-87
2022/03/11 23:46:34;;;;;;;;;;;39.00;1356.80;;;;;;6192884;23;19900;-89
2022/03/11 23:49:03;;;;;;;;;;;39.00;1382.40;;;;;;6220096;23;19907;-90
2022/03/11 23:51:30;;;;;;;;;;;39.00;1382.40;;;;;;6192888;23;19997;-90
2022/03/11 23:53:55;;;;;;;;;;;38.90;1382.40;;;;;;6192696;23;19978;-90
2022/03/11 23:56:22;;;;;;;;;;;38.90;1408.00;;;;;;6192872;23;19904;-91
2022/03/11 23:58:48;;;;;;;;;;;38.90;1382.40;;;;;;6219202;23;19954;-91
